Airfield :
LOGIN :

Register | Disclaimer

   EN    FR    IT 

 










Legend :    VFR   Marginal VFR   IFR   Intensive IFR   Very Intensive IFR
Visi :
Ceiling :
>= 8 km
>= 3000ft
5 to 8 km
1000 to 3000 ft
1500m to 5 km
500 to 1000 ft
800 to 1500m
200 to 500 ft
< 800m
< 200 ft
Symbols :   Thunderstorms  Fog  Heavy snow  Heavy precipitations  Wind > 20 kt
SIGMETs :     Misc.  Thunderstorms  Icing  Turbulence  Mountain Waves  Volcanic Ashes






- Airport Elevation : 433 ft
- IATA code : CCF


LFMK - Carcassonne

CURRENT METAR :
  • 180430Z AUTO 26010KT 230V290 4200 BR OVC003 M00/M00 Q1031 BECMG 2000 BR

EXPIRED METARs :
  • 180400Z AUTO 26008KT 220V290 4500 BR OVC002 M00/M00 Q1031 BECMG 2000 BR
  • 180330Z AUTO 26010KT 210V300 2500 BR OVC002 M00/M00 Q1031 BECMG 3000 BR
  • 180300Z AUTO 27012KT 230V290 2300 BR OVC002 M00/M00 Q1031 BECMG 3000 BR
  • 180230Z AUTO 27009KT 230V300 3500 BR OVC002 M00/M00 Q1031
  • 180200Z AUTO 27009KT 230V290 1800 BR VV/// M00/M00 Q1031

TAF AMD TAF LFMK
Valid from the 18 at 04:00 until the 19 at 03:00 UTC


180433Z 1804/1903 26011KT 4000 BR OVC002
BECMG 1812/1814 28005KT CAVOK
BECMG 1819/1821 1500 BR OVC001



MET'MAP, your aeronautical weather chart ! - Copyright ORBIFLY December 2007 - Disclaimer

ORBIFLY MET'MAP TEAM :

Programming & Development : Alexandra Zaïnal
Concept & original design : Baudouin d'Aumeries
Assistance for programming : Marc-Olivier Méhu
Technical & hardware support : Manuel Goepfert

Contact : metmap@orbifly.com




SOURCES & CREDITS :

   NOAA